sensor_id;sensor_type;location;lat;lon;timestamp;temperature;humidity
19799;DHT22;10059;59.850;10.454;2023-03-18T00:00:59;3.70;99.90
19799;DHT22;10059;59.850;10.454;2023-03-18T00:03:28;3.80;99.90
19799;DHT22;10059;59.850;10.454;2023-03-18T00:06:02;3.80;99.90
19799;DHT22;10059;59.850;10.454;2023-03-18T00:08:29;3.70;99.90
19799;DHT22;10059;59.850;10.454;2023-03-18T00:10:57;3.70;99.90
19799;DHT22;10059;59.850;10.454;2023-03-18T00:13:25;3.70;99.90
19799;DHT22;10059;59.850;10.454;2023-03-18T00:15:53;3.80;99.90
19799;DHT22;10059;59.850;10.454;2023-03-18T00:18:21;3.70;99.90
19799;DHT22;10059;59.850;10.454;2023-03-18T00:20:48;3.80;99.90
19799;DHT22;10059;59.850;10.454;2023-03-18T00:23:14;3.80;99.90
19799;DHT22;10059;59.850;10.454;2023-03-18T00:25:42;3.80;99.90
19799;DHT22;10059;59.850;10.454;2023-03-18T00:28:12;3.80;99.90
19799;DHT22;10059;59.850;10.454;2023-03-18T00:30:39;3.90;99.90
19799;DHT22;10059;59.850;10.454;2023-03-18T00:33:07;4.00;99.90
19799;DHT22;10059;59.850;10.454;2023-03-18T00:35:36;4.00;99.90
19799;DHT22;10059;59.850;10.454;2023-03-18T00:38:04;3.70;99.90
19799;DHT22;10059;59.850;10.454;2023-03-18T00:40:33;3.70;99.90
19799;DHT22;10059;59.850;10.454;2023-03-18T00:43:18;3.50;99.90
19799;DHT22;10059;59.850;10.454;2023-03-18T00:45:48;3.50;99.90
19799;DHT22;10059;59.850;10.454;2023-03-18T00:48:15;3.50;99.90
19799;DHT22;10059;59.850;10.454;2023-03-18T00:50:44;3.50;99.90
19799;DHT22;10059;59.850;10.454;2023-03-18T00:53:11;3.60;99.90
19799;DHT22;10059;59.850;10.454;2023-03-18T00:55:39;3.70;99.90
19799;DHT22;10059;59.850;10.454;2023-03-18T00:58:06;3.90;99.90
19799;DHT22;10059;59.850;10.454;2023-03-18T01:00:34;3.80;99.90
19799;DHT22;10059;59.850;10.454;2023-03-18T01:03:02;3.90;99.90
19799;DHT22;10059;59.850;10.454;2023-03-18T01:05:29;3.60;99.90
19799;DHT22;10059;59.850;10.454;2023-03-18T01:07:57;3.70;99.90
19799;DHT22;10059;59.850;10.454;2023-03-18T01:10:25;3.70;99.90
19799;DHT22;10059;59.850;10.454;2023-03-18T01:12:53;3.70;99.90
19799;DHT22;10059;59.850;10.454;2023-03-18T01:15:21;3.70;99.90
19799;DHT22;10059;59.850;10.454;2023-03-18T01:17:48;3.90;99.90
19799;DHT22;10059;59.850;10.454;2023-03-18T01:20:18;3.90;99.90
19799;DHT22;10059;59.850;10.454;2023-03-18T01:22:45;3.80;99.90
19799;DHT22;10059;59.850;10.454;2023-03-18T01:25:14;3.60;99.90
19799;DHT22;10059;59.850;10.454;2023-03-18T01:27:41;3.70;99.90
19799;DHT22;10059;59.850;10.454;2023-03-18T01:30:09;3.70;99.90
19799;DHT22;10059;59.850;10.454;2023-03-18T01:32:38;3.70;99.90
19799;DHT22;10059;59.850;10.454;2023-03-18T01:35:06;3.70;99.90
19799;DHT22;10059;59.850;10.454;2023-03-18T01:37:33;3.80;99.90
19799;DHT22;10059;59.850;10.454;2023-03-18T01:40:00;3.80;99.90
19799;DHT22;10059;59.850;10.454;2023-03-18T01:42:28;3.80;99.90
19799;DHT22;10059;59.850;10.454;2023-03-18T01:45:15;3.70;99.90
19799;DHT22;10059;59.850;10.454;2023-03-18T01:47:44;3.70;99.90
19799;DHT22;10059;59.850;10.454;2023-03-18T01:50:13;3.60;99.90
19799;DHT22;10059;59.850;10.454;2023-03-18T01:52:41;3.70;99.90
19799;DHT22;10059;59.850;10.454;2023-03-18T01:55:11;3.70;99.90
19799;DHT22;10059;59.850;10.454;2023-03-18T01:57:42;3.70;99.90
19799;DHT22;10059;59.850;10.454;2023-03-18T02:00:10;3.80;99.90
19799;DHT22;10059;59.850;10.454;2023-03-18T02:02:39;3.80;99.90
19799;DHT22;10059;59.850;10.454;2023-03-18T02:05:10;3.80;99.90
19799;DHT22;10059;59.850;10.454;2023-03-18T02:07:40;3.80;99.90
19799;DHT22;10059;59.850;10.454;2023-03-18T02:10:11;3.60;99.90
19799;DHT22;10059;59.850;10.454;2023-03-18T02:12:43;3.50;99.90
19799;DHT22;10059;59.850;10.454;2023-03-18T02:15:13;3.50;99.90
19799;DHT22;10059;59.850;10.454;2023-03-18T02:17:43;3.60;99.90
19799;DHT22;10059;59.850;10.454;2023-03-18T02:20:18;3.70;99.90
19799;DHT22;10059;59.850;10.454;2023-03-18T02:22:53;3.70;99.90
19799;DHT22;10059;59.850;10.454;2023-03-18T02:25:30;3.80;99.90
19799;DHT22;10059;59.850;10.454;2023-03-18T02:28:01;3.90;99.90
19799;DHT22;10059;59.850;10.454;2023-03-18T02:30:32;3.90;99.90
19799;DHT22;10059;59.850;10.454;2023-03-18T02:33:00;3.90;99.90
19799;DHT22;10059;59.850;10.454;2023-03-18T02:35:29;3.90;99.90
19799;DHT22;10059;59.850;10.454;2023-03-18T02:37:56;3.90;99.90
19799;DHT22;10059;59.850;10.454;2023-03-18T02:40:26;3.90;99.90
19799;DHT22;10059;59.850;10.454;2023-03-18T02:42:54;4.00;99.90
19799;DHT22;10059;59.850;10.454;2023-03-18T02:45:31;3.80;99.90
19799;DHT22;10059;59.850;10.454;2023-03-18T02:48:00;3.60;99.90
19799;DHT22;10059;59.850;10.454;2023-03-18T02:50:28;3.60;99.90
19799;DHT22;10059;59.850;10.454;2023-03-18T02:52:55;3.20;99.90
19799;DHT22;10059;59.850;10.454;2023-03-18T02:55:22;3.00;99.90
19799;DHT22;10059;59.850;10.454;2023-03-18T02:57:49;2.90;99.90
19799;DHT22;10059;59.850;10.454;2023-03-18T03:00:16;3.10;99.90
19799;DHT22;10059;59.850;10.454;2023-03-18T03:02:44;3.30;99.90
19799;DHT22;10059;59.850;10.454;2023-03-18T03:05:11;3.50;99.90
19799;DHT22;10059;59.850;10.454;2023-03-18T03:07:38;3.50;99.90
19799;DHT22;10059;59.850;10.454;2023-03-18T03:10:06;3.40;99.90
19799;DHT22;10059;59.850;10.454;2023-03-18T03:12:33;3.10;99.90
19799;DHT22;10059;59.850;10.454;2023-03-18T03:15:02;2.90;99.90
19799;DHT22;10059;59.850;10.454;2023-03-18T03:17:29;3.00;99.90
19799;DHT22;10059;59.850;10.454;2023-03-18T03:19:59;3.10;99.90
19799;DHT22;10059;59.850;10.454;2023-03-18T03:22:26;3.00;99.90
19799;DHT22;10059;59.850;10.454;2023-03-18T03:24:54;2.70;99.90
19799;DHT22;10059;59.850;10.454;2023-03-18T03:27:21;2.60;99.90
19799;DHT22;10059;59.850;10.454;2023-03-18T03:29:48;2.70;99.90
19799;DHT22;10059;59.850;10.454;2023-03-18T03:32:15;2.90;99.90
19799;DHT22;10059;59.850;10.454;2023-03-18T03:34:42;2.90;99.90
19799;DHT22;10059;59.850;10.454;2023-03-18T03:37:10;2.60;99.90
19799;DHT22;10059;59.850;10.454;2023-03-18T03:39:37;2.70;99.90
19799;DHT22;10059;59.850;10.454;2023-03-18T03:42:05;2.90;99.90
19799;DHT22;10059;59.850;10.454;2023-03-18T03:44:32;3.00;99.90
19799;DHT22;10059;59.850;10.454;2023-03-18T03:46:59;2.80;99.90
19799;DHT22;10059;59.850;10.454;2023-03-18T03:49:26;2.70;99.90
19799;DHT22;10059;59.850;10.454;2023-03-18T03:51:53;2.80;99.90
19799;DHT22;10059;59.850;10.454;2023-03-18T03:54:22;3.10;99.90
19799;DHT22;10059;59.850;10.454;2023-03-18T03:56:50;3.00;99.90
19799;DHT22;10059;59.850;10.454;2023-03-18T03:59:17;2.80;99.90
19799;DHT22;10059;59.850;10.454;2023-03-18T04:01:44;2.80;99.90
19799;DHT22;10059;59.850;10.454;2023-03-18T04:04:11;2.80;99.90
19799;DHT22;10059;59.850;10.454;2023-03-18T04:06:38;2.80;99.90
19799;DHT22;10059;59.850;10.454;2023-03-18T04:09:05;2.90;99.90
19799;DHT22;10059;59.850;10.454;2023-03-18T04:11:33;2.80;99.90
19799;DHT22;10059;59.850;10.454;2023-03-18T04:14:00;2.70;99.90
19799;DHT22;10059;59.850;10.454;2023-03-18T04:16:27;2.60;99.90
19799;DHT22;10059;59.850;10.454;2023-03-18T04:18:53;2.70;99.90
19799;DHT22;10059;59.850;10.454;2023-03-18T04:21:20;2.70;99.90
19799;DHT22;10059;59.850;10.454;2023-03-18T04:23:47;2.80;99.90
19799;DHT22;10059;59.850;10.454;2023-03-18T04:26:14;3.00;99.90
19799;DHT22;10059;59.850;10.454;2023-03-18T04:28:42;3.00;99.90
19799;DHT22;10059;59.850;10.454;2023-03-18T04:31:09;2.80;99.90
19799;DHT22;10059;59.850;10.454;2023-03-18T04:33:36;2.70;99.90
19799;DHT22;10059;59.850;10.454;2023-03-18T04:36:03;2.80;99.90
19799;DHT22;10059;59.850;10.454;2023-03-18T04:38:30;2.90;99.90
19799;DHT22;10059;59.850;10.454;2023-03-18T04:40:57;2.90;99.90
19799;DHT22;10059;59.850;10.454;2023-03-18T04:43:24;3.00;99.90
19799;DHT22;10059;59.850;10.454;2023-03-18T04:45:52;2.80;99.90
19799;DHT22;10059;59.850;10.454;2023-03-18T04:48:19;2.70;99.90
19799;DHT22;10059;59.850;10.454;2023-03-18T04:50:46;2.60;99.90
19799;DHT22;10059;59.850;10.454;2023-03-18T04:53:14;2.80;99.90
19799;DHT22;10059;59.850;10.454;2023-03-18T04:55:41;2.80;99.90
19799;DHT22;10059;59.850;10.454;2023-03-18T04:58:08;2.80;99.90
19799;DHT22;10059;59.850;10.454;2023-03-18T05:00:35;2.80;99.90
19799;DHT22;10059;59.850;10.454;2023-03-18T05:03:03;2.80;99.90
19799;DHT22;10059;59.850;10.454;2023-03-18T05:05:31;2.80;99.90
19799;DHT22;10059;59.850;10.454;2023-03-18T05:07:58;2.70;99.90
19799;DHT22;10059;59.850;10.454;2023-03-18T05:10:25;2.60;99.90
19799;DHT22;10059;59.850;10.454;2023-03-18T05:12:52;2.60;99.90
19799;DHT22;10059;59.850;10.454;2023-03-18T05:15:19;2.80;99.90
19799;DHT22;10059;59.850;10.454;2023-03-18T05:17:46;2.70;99.90
19799;DHT22;10059;59.850;10.454;2023-03-18T05:20:14;2.70;99.90
19799;DHT22;10059;59.850;10.454;2023-03-18T05:22:42;2.50;99.90
19799;DHT22;10059;59.850;10.454;2023-03-18T05:25:08;2.50;99.90
19799;DHT22;10059;59.850;10.454;2023-03-18T05:27:37;2.50;99.90
19799;DHT22;10059;59.850;10.454;2023-03-18T05:30:04;2.60;99.90
19799;DHT22;10059;59.850;10.454;2023-03-18T05:32:31;2.70;99.90
19799;DHT22;10059;59.850;10.454;2023-03-18T05:34:58;2.80;99.90
19799;DHT22;10059;59.850;10.454;2023-03-18T05:37:26;2.80;99.90
19799;DHT22;10059;59.850;10.454;2023-03-18T05:39:53;2.70;99.90
19799;DHT22;10059;59.850;10.454;2023-03-18T05:42:20;2.60;99.90
19799;DHT22;10059;59.850;10.454;2023-03-18T05:44:47;2.60;99.90
19799;DHT22;10059;59.850;10.454;2023-03-18T05:47:14;2.70;99.90
19799;DHT22;10059;59.850;10.454;2023-03-18T05:49:41;2.80;99.90
19799;DHT22;10059;59.850;10.454;2023-03-18T05:52:08;3.00;99.90
19799;DHT22;10059;59.850;10.454;2023-03-18T05:54:36;3.00;99.90
19799;DHT22;10059;59.850;10.454;2023-03-18T05:57:04;3.00;99.90
19799;DHT22;10059;59.850;10.454;2023-03-18T05:59:31;3.10;99.90
19799;DHT22;10059;59.850;10.454;2023-03-18T06:01:58;3.20;99.90
19799;DHT22;10059;59.850;10.454;2023-03-18T06:04:26;3.40;99.90
19799;DHT22;10059;59.850;10.454;2023-03-18T06:06:53;3.50;99.90
19799;DHT22;10059;59.850;10.454;2023-03-18T06:09:19;3.40;99.90
19799;DHT22;10059;59.850;10.454;2023-03-18T06:11:49;3.50;99.90
19799;DHT22;10059;59.850;10.454;2023-03-18T06:14:16;3.40;99.90
19799;DHT22;10059;59.850;10.454;2023-03-18T06:16:43;3.40;99.90
19799;DHT22;10059;59.850;10.454;2023-03-18T06:19:11;3.60;99.90
19799;DHT22;10059;59.850;10.454;2023-03-18T06:21:39;3.60;99.90
19799;DHT22;10059;59.850;10.454;2023-03-18T06:24:07;3.80;99.90
19799;DHT22;10059;59.850;10.454;2023-03-18T06:26:34;3.80;99.90
19799;DHT22;10059;59.850;10.454;2023-03-18T06:29:02;3.80;99.90
19799;DHT22;10059;59.850;10.454;2023-03-18T06:31:29;4.00;99.90
19799;DHT22;10059;59.850;10.454;2023-03-18T06:33:56;4.10;99.90
19799;DHT22;10059;59.850;10.454;2023-03-18T06:36:23;4.10;99.90
19799;DHT22;10059;59.850;10.454;2023-03-18T06:38:51;4.10;99.90
19799;DHT22;10059;59.850;10.454;2023-03-18T06:41:19;4.20;99.90
19799;DHT22;10059;59.850;10.454;2023-03-18T06:43:46;4.10;99.90
19799;DHT22;10059;59.850;10.454;2023-03-18T06:46:16;4.30;99.90
19799;DHT22;10059;59.850;10.454;2023-03-18T06:48:43;4.20;99.90
19799;DHT22;10059;59.850;10.454;2023-03-18T06:51:11;4.00;99.90
19799;DHT22;10059;59.850;10.454;2023-03-18T06:53:38;4.10;99.90
19799;DHT22;10059;59.850;10.454;2023-03-18T06:56:05;4.00;99.90
19799;DHT22;10059;59.850;10.454;2023-03-18T06:58:32;3.90;99.90
19799;DHT22;10059;59.850;10.454;2023-03-18T07:00:59;3.80;99.90
19799;DHT22;10059;59.850;10.454;2023-03-18T07:03:28;3.70;99.90
19799;DHT22;10059;59.850;10.454;2023-03-18T07:05:55;3.60;99.90
19799;DHT22;10059;59.850;10.454;2023-03-18T07:08:22;3.60;99.90
19799;DHT22;10059;59.850;10.454;2023-03-18T07:10:51;3.90;99.90
19799;DHT22;10059;59.850;10.454;2023-03-18T07:13:18;3.80;99.90
19799;DHT22;10059;59.850;10.454;2023-03-18T07:15:45;3.80;99.90
19799;DHT22;10059;59.850;10.454;2023-03-18T07:18:13;3.80;99.90
19799;DHT22;10059;59.850;10.454;2023-03-18T07:20:41;3.70;99.90
19799;DHT22;10059;59.850;10.454;2023-03-18T07:23:08;3.70;99.90
19799;DHT22;10059;59.850;10.454;2023-03-18T07:25:35;3.80;99.90
19799;DHT22;10059;59.850;10.454;2023-03-18T07:28:02;3.80;99.90
19799;DHT22;10059;59.850;10.454;2023-03-18T07:30:30;3.70;99.90
19799;DHT22;10059;59.850;10.454;2023-03-18T07:32:57;3.70;99.90
19799;DHT22;10059;59.850;10.454;2023-03-18T07:35:25;3.90;99.90
19799;DHT22;10059;59.850;10.454;2023-03-18T07:37:53;4.00;99.90
19799;DHT22;10059;59.850;10.454;2023-03-18T07:40:20;3.90;99.90
19799;DHT22;10059;59.850;10.454;2023-03-18T07:42:47;3.90;99.90
19799;DHT22;10059;59.850;10.454;2023-03-18T07:45:16;4.00;99.90
19799;DHT22;10059;59.850;10.454;2023-03-18T07:47:43;4.30;99.90
19799;DHT22;10059;59.850;10.454;2023-03-18T07:50:10;4.60;99.90
19799;DHT22;10059;59.850;10.454;2023-03-18T07:52:38;4.70;99.90
19799;DHT22;10059;59.850;10.454;2023-03-18T07:55:06;4.70;99.90
19799;DHT22;10059;59.850;10.454;2023-03-18T07:57:34;4.70;99.90
19799;DHT22;10059;59.850;10.454;2023-03-18T08:00:02;4.70;99.90
19799;DHT22;10059;59.850;10.454;2023-03-18T08:02:29;4.80;99.90
19799;DHT22;10059;59.850;10.454;2023-03-18T08:04:56;4.80;99.90
19799;DHT22;10059;59.850;10.454;2023-03-18T08:07:23;5.00;99.90
19799;DHT22;10059;59.850;10.454;2023-03-18T08:09:50;5.10;99.90
19799;DHT22;10059;59.850;10.454;2023-03-18T08:12:18;5.10;99.90
19799;DHT22;10059;59.850;10.454;2023-03-18T08:14:45;5.20;99.90
19799;DHT22;10059;59.850;10.454;2023-03-18T08:17:13;5.30;99.90
19799;DHT22;10059;59.850;10.454;2023-03-18T08:19:40;5.30;99.90
19799;DHT22;10059;59.850;10.454;2023-03-18T08:22:07;5.20;99.90
19799;DHT22;10059;59.850;10.454;2023-03-18T08:24:34;5.30;99.90
19799;DHT22;10059;59.850;10.454;2023-03-18T08:27:01;5.20;99.90
19799;DHT22;10059;59.850;10.454;2023-03-18T08:29:30;5.20;99.90
19799;DHT22;10059;59.850;10.454;2023-03-18T08:31:57;5.30;99.90
19799;DHT22;10059;59.850;10.454;2023-03-18T08:34:24;5.40;99.90
19799;DHT22;10059;59.850;10.454;2023-03-18T08:36:51;5.40;99.90
19799;DHT22;10059;59.850;10.454;2023-03-18T08:39:18;5.50;99.90
19799;DHT22;10059;59.850;10.454;2023-03-18T08:41:45;5.50;99.90
19799;DHT22;10059;59.850;10.454;2023-03-18T08:44:13;5.40;99.90
19799;DHT22;10059;59.850;10.454;2023-03-18T08:46:42;5.50;99.90
19799;DHT22;10059;59.850;10.454;2023-03-18T08:49:09;5.60;99.90
19799;DHT22;10059;59.850;10.454;2023-03-18T08:51:36;5.60;99.90
19799;DHT22;10059;59.850;10.454;2023-03-18T08:54:04;5.70;99.90
19799;DHT22;10059;59.850;10.454;2023-03-18T08:56:32;5.80;99.90
19799;DHT22;10059;59.850;10.454;2023-03-18T08:58:59;5.90;99.90
19799;DHT22;10059;59.850;10.454;2023-03-18T09:01:26;6.00;99.90
19799;DHT22;10059;59.850;10.454;2023-03-18T09:03:54;6.10;99.90
19799;DHT22;10059;59.850;10.454;2023-03-18T09:06:23;6.30;99.90
19799;DHT22;10059;59.850;10.454;2023-03-18T09:08:51;6.60;99.90
19799;DHT22;10059;59.850;10.454;2023-03-18T09:11:18;6.90;99.90
19799;DHT22;10059;59.850;10.454;2023-03-18T09:13:45;7.40;99.90
19799;DHT22;10059;59.850;10.454;2023-03-18T09:16:11;7.70;99.90
19799;DHT22;10059;59.850;10.454;2023-03-18T09:18:38;7.80;99.90
19799;DHT22;10059;59.850;10.454;2023-03-18T09:21:06;7.70;99.90
19799;DHT22;10059;59.850;10.454;2023-03-18T09:23:33;7.70;99.90
19799;DHT22;10059;59.850;10.454;2023-03-18T09:26:00;7.80;99.90
19799;DHT22;10059;59.850;10.454;2023-03-18T09:28:28;7.70;99.90
19799;DHT22;10059;59.850;10.454;2023-03-18T09:30:54;7.60;99.90
19799;DHT22;10059;59.850;10.454;2023-03-18T09:33:21;7.60;99.90
19799;DHT22;10059;59.850;10.454;2023-03-18T09:35:49;7.60;99.90
19799;DHT22;10059;59.850;10.454;2023-03-18T09:38:18;7.90;99.90
19799;DHT22;10059;59.850;10.454;2023-03-18T09:40:54;7.90;99.90
19799;DHT22;10059;59.850;10.454;2023-03-18T09:43:54;7.90;99.90
19799;DHT22;10059;59.850;10.454;2023-03-18T09:46:27;7.90;99.90
19799;DHT22;10059;59.850;10.454;2023-03-18T09:49:31;7.80;99.90
19799;DHT22;10059;59.850;10.454;2023-03-18T09:52:12;7.90;99.90
19799;DHT22;10059;59.850;10.454;2023-03-18T09:54:48;7.80;99.90
19799;DHT22;10059;59.850;10.454;2023-03-18T09:57:21;7.90;99.90
19799;DHT22;10059;59.850;10.454;2023-03-18T09:59:51;7.90;99.90
19799;DHT22;10059;59.850;10.454;2023-03-18T10:02:24;7.90;99.90
19799;DHT22;10059;59.850;10.454;2023-03-18T10:04:55;8.00;99.90
19799;DHT22;10059;59.850;10.454;2023-03-18T10:07:27;7.90;99.90
19799;DHT22;10059;59.850;10.454;2023-03-18T10:10:01;8.00;99.90
19799;DHT22;10059;59.850;10.454;2023-03-18T10:12:33;7.90;99.90
19799;DHT22;10059;59.850;10.454;2023-03-18T10:15:11;7.70;99.90
19799;DHT22;10059;59.850;10.454;2023-03-18T10:17:41;7.80;99.90
19799;DHT22;10059;59.850;10.454;2023-03-18T10:20:15;7.90;99.90
19799;DHT22;10059;59.850;10.454;2023-03-18T10:22:52;8.50;99.90
19799;DHT22;10059;59.850;10.454;2023-03-18T10:25:25;8.60;99.90
19799;DHT22;10059;59.850;10.454;2023-03-18T10:28:17;9.10;99.90
19799;DHT22;10059;59.850;10.454;2023-03-18T10:30:59;9.00;99.90
19799;DHT22;10059;59.850;10.454;2023-03-18T10:33:35;9.10;99.90
19799;DHT22;10059;59.850;10.454;2023-03-18T10:36:11;9.70;99.90
19799;DHT22;10059;59.850;10.454;2023-03-18T10:38:42;10.10;99.90
19799;DHT22;10059;59.850;10.454;2023-03-18T10:41:16;10.10;99.90
19799;DHT22;10059;59.850;10.454;2023-03-18T10:43:45;10.00;99.90
19799;DHT22;10059;59.850;10.454;2023-03-18T10:46:15;10.00;99.90
19799;DHT22;10059;59.850;10.454;2023-03-18T10:48:45;10.10;99.90
19799;DHT22;10059;59.850;10.454;2023-03-18T10:51:18;10.10;99.90
19799;DHT22;10059;59.850;10.454;2023-03-18T10:53:50;9.90;99.90
19799;DHT22;10059;59.850;10.454;2023-03-18T10:56:21;10.10;99.90
19799;DHT22;10059;59.850;10.454;2023-03-18T10:58:48;9.90;99.90
19799;DHT22;10059;59.850;10.454;2023-03-18T11:01:18;10.10;99.90
19799;DHT22;10059;59.850;10.454;2023-03-18T11:03:50;9.80;99.90
19799;DHT22;10059;59.850;10.454;2023-03-18T11:06:21;10.10;99.90
19799;DHT22;10059;59.850;10.454;2023-03-18T11:08:59;10.20;99.90
19799;DHT22;10059;59.850;10.454;2023-03-18T11:11:31;10.20;99.90
19799;DHT22;10059;59.850;10.454;2023-03-18T11:14:00;10.30;99.90
19799;DHT22;10059;59.850;10.454;2023-03-18T11:16:31;10.20;99.90
19799;DHT22;10059;59.850;10.454;2023-03-18T11:19:01;10.00;99.90
19799;DHT22;10059;59.850;10.454;2023-03-18T11:21:31;9.90;99.90
19799;DHT22;10059;59.850;10.454;2023-03-18T11:23:59;9.90;99.90
19799;DHT22;10059;59.850;10.454;2023-03-18T11:26:52;9.80;99.90
19799;DHT22;10059;59.850;10.454;2023-03-18T11:29:21;9.70;99.90
19799;DHT22;10059;59.850;10.454;2023-03-18T11:31:52;9.80;99.90
19799;DHT22;10059;59.850;10.454;2023-03-18T11:34:23;9.70;99.90
19799;DHT22;10059;59.850;10.454;2023-03-18T11:36:55;10.00;99.90
19799;DHT22;10059;59.850;10.454;2023-03-18T11:39:24;9.70;99.90
19799;DHT22;10059;59.850;10.454;2023-03-18T11:41:53;9.30;99.90
19799;DHT22;10059;59.850;10.454;2023-03-18T11:44:28;9.80;99.90
19799;DHT22;10059;59.850;10.454;2023-03-18T11:47:02;9.90;99.90
19799;DHT22;10059;59.850;10.454;2023-03-18T11:49:31;10.00;99.90
19799;DHT22;10059;59.850;10.454;2023-03-18T11:52:23;10.00;99.90
19799;DHT22;10059;59.850;10.454;2023-03-18T11:55:21;10.10;99.90
19799;DHT22;10059;59.850;10.454;2023-03-18T11:58:06;10.00;99.90
19799;DHT22;10059;59.850;10.454;2023-03-18T12:00:42;10.00;99.90
19799;DHT22;10059;59.850;10.454;2023-03-18T12:06:18;8.90;99.90
19799;DHT22;10059;59.850;10.454;2023-03-18T12:08:52;9.20;99.90
19799;DHT22;10059;59.850;10.454;2023-03-18T12:11:36;9.10;99.90
19799;DHT22;10059;59.850;10.454;2023-03-18T12:14:12;9.20;99.90
19799;DHT22;10059;59.850;10.454;2023-03-18T12:16:50;9.20;99.90
19799;DHT22;10059;59.850;10.454;2023-03-18T12:19:37;9.40;99.90
19799;DHT22;10059;59.850;10.454;2023-03-18T12:22:38;9.40;99.90
19799;DHT22;10059;59.850;10.454;2023-03-18T12:25:22;9.60;99.90
19799;DHT22;10059;59.850;10.454;2023-03-18T12:27:59;9.70;99.90
19799;DHT22;10059;59.850;10.454;2023-03-18T12:30:53;9.90;99.90
19799;DHT22;10059;59.850;10.454;2023-03-18T12:33:33;9.80;99.90
19799;DHT22;10059;59.850;10.454;2023-03-18T12:36:08;9.70;99.90
19799;DHT22;10059;59.850;10.454;2023-03-18T12:39:03;9.80;99.90
19799;DHT22;10059;59.850;10.454;2023-03-18T12:41:43;9.90;99.90
19799;DHT22;10059;59.850;10.454;2023-03-18T12:44:26;10.00;99.90
19799;DHT22;10059;59.850;10.454;2023-03-18T12:46:59;9.90;99.90
19799;DHT22;10059;59.850;10.454;2023-03-18T12:49:30;9.80;99.90
19799;DHT22;10059;59.850;10.454;2023-03-18T12:52:01;9.90;99.90
19799;DHT22;10059;59.850;10.454;2023-03-18T12:54:31;9.90;99.90
19799;DHT22;10059;59.850;10.454;2023-03-18T12:57:01;9.60;99.90
19799;DHT22;10059;59.850;10.454;2023-03-18T12:59:34;10.30;99.90
19799;DHT22;10059;59.850;10.454;2023-03-18T13:02:37;9.90;99.90
19799;DHT22;10059;59.850;10.454;2023-03-18T13:05:16;9.90;99.90
19799;DHT22;10059;59.850;10.454;2023-03-18T13:07:50;10.00;99.90
19799;DHT22;10059;59.850;10.454;2023-03-18T13:10:21;10.20;99.90
19799;DHT22;10059;59.850;10.454;2023-03-18T13:12:50;10.30;99.90
19799;DHT22;10059;59.850;10.454;2023-03-18T13:15:22;10.40;99.90
19799;DHT22;10059;59.850;10.454;2023-03-18T13:17:55;10.00;99.90
19799;DHT22;10059;59.850;10.454;2023-03-18T13:20:25;9.80;99.90
19799;DHT22;10059;59.850;10.454;2023-03-18T13:23:19;10.00;99.90
19799;DHT22;10059;59.850;10.454;2023-03-18T13:25:57;10.40;99.90
19799;DHT22;10059;59.850;10.454;2023-03-18T13:28:36;10.80;99.90
19799;DHT22;10059;59.850;10.454;2023-03-18T13:31:11;10.90;99.90
19799;DHT22;10059;59.850;10.454;2023-03-18T13:34:01;10.50;99.90
19799;DHT22;10059;59.850;10.454;2023-03-18T13:36:54;10.60;99.90
19799;DHT22;10059;59.850;10.454;2023-03-18T13:39:36;10.80;99.90
19799;DHT22;10059;59.850;10.454;2023-03-18T13:42:21;10.40;99.90
19799;DHT22;10059;59.850;10.454;2023-03-18T13:44:56;10.50;99.90
19799;DHT22;10059;59.850;10.454;2023-03-18T13:47:29;10.50;99.90
19799;DHT22;10059;59.850;10.454;2023-03-18T13:50:05;10.60;99.90
19799;DHT22;10059;59.850;10.454;2023-03-18T13:52:35;10.40;99.90
19799;DHT22;10059;59.850;10.454;2023-03-18T13:55:19;10.10;99.90
19799;DHT22;10059;59.850;10.454;2023-03-18T13:57:54;10.40;99.90
19799;DHT22;10059;59.850;10.454;2023-03-18T14:00:31;10.20;99.90
19799;DHT22;10059;59.850;10.454;2023-03-18T14:03:17;10.00;99.90
19799;DHT22;10059;59.850;10.454;2023-03-18T14:05:48;9.90;99.90
19799;DHT22;10059;59.850;10.454;2023-03-18T14:08:44;9.80;99.90
19799;DHT22;10059;59.850;10.454;2023-03-18T14:17:25;10.30;99.90
19799;DHT22;10059;59.850;10.454;2023-03-18T14:20:04;10.50;99.90
19799;DHT22;10059;59.850;10.454;2023-03-18T14:22:35;10.40;99.90
19799;DHT22;10059;59.850;10.454;2023-03-18T14:28:22;10.60;99.90
19799;DHT22;10059;59.850;10.454;2023-03-18T14:31:24;10.80;99.90
19799;DHT22;10059;59.850;10.454;2023-03-18T14:34:22;10.50;99.90
19799;DHT22;10059;59.850;10.454;2023-03-18T14:37:26;10.20;99.90
19799;DHT22;10059;59.850;10.454;2023-03-18T14:39:59;10.30;99.90
19799;DHT22;10059;59.850;10.454;2023-03-18T14:42:43;10.40;99.90
19799;DHT22;10059;59.850;10.454;2023-03-18T14:45:18;10.20;99.90
19799;DHT22;10059;59.850;10.454;2023-03-18T14:47:49;10.20;99.90
19799;DHT22;10059;59.850;10.454;2023-03-18T14:50:24;10.00;99.90
19799;DHT22;10059;59.850;10.454;2023-03-18T14:52:57;10.00;99.90
19799;DHT22;10059;59.850;10.454;2023-03-18T14:55:29;10.00;99.90
19799;DHT22;10059;59.850;10.454;2023-03-18T14:57:58;9.60;99.90
19799;DHT22;10059;59.850;10.454;2023-03-18T15:00:29;9.50;99.90
19799;DHT22;10059;59.850;10.454;2023-03-18T15:02:59;9.20;99.90
19799;DHT22;10059;59.850;10.454;2023-03-18T15:05:32;9.00;99.90
19799;DHT22;10059;59.850;10.454;2023-03-18T15:08:00;8.90;99.90
19799;DHT22;10059;59.850;10.454;2023-03-18T15:10:29;9.10;99.90
19799;DHT22;10059;59.850;10.454;2023-03-18T15:13:01;9.10;99.90
19799;DHT22;10059;59.850;10.454;2023-03-18T15:15:31;9.00;99.90
19799;DHT22;10059;59.850;10.454;2023-03-18T15:18:15;9.10;99.90
19799;DHT22;10059;59.850;10.454;2023-03-18T15:20:43;9.20;99.90
19799;DHT22;10059;59.850;10.454;2023-03-18T15:23:13;9.10;99.90
19799;DHT22;10059;59.850;10.454;2023-03-18T15:25:42;8.90;99.90
19799;DHT22;10059;59.850;10.454;2023-03-18T15:28:16;8.40;99.90
19799;DHT22;10059;59.850;10.454;2023-03-18T15:30:50;8.40;99.90
19799;DHT22;10059;59.850;10.454;2023-03-18T15:33:21;8.60;99.90
19799;DHT22;10059;59.850;10.454;2023-03-18T15:35:56;8.50;99.90
19799;DHT22;10059;59.850;10.454;2023-03-18T15:38:29;8.60;99.90
19799;DHT22;10059;59.850;10.454;2023-03-18T15:40:59;8.70;99.90
19799;DHT22;10059;59.850;10.454;2023-03-18T15:43:30;8.80;99.90
19799;DHT22;10059;59.850;10.454;2023-03-18T15:46:05;8.90;99.90
19799;DHT22;10059;59.850;10.454;2023-03-18T15:48:35;8.90;99.90
19799;DHT22;10059;59.850;10.454;2023-03-18T15:51:05;9.00;99.90
19799;DHT22;10059;59.850;10.454;2023-03-18T15:53:38;9.00;99.90
19799;DHT22;10059;59.850;10.454;2023-03-18T15:56:15;9.00;99.90
19799;DHT22;10059;59.850;10.454;2023-03-18T15:58:42;9.20;99.90
19799;DHT22;10059;59.850;10.454;2023-03-18T16:01:14;9.30;99.90
19799;DHT22;10059;59.850;10.454;2023-03-18T16:03:43;9.30;99.90